Somerset, Indiana
Current Conditions -  °F | °C
As of 3:35 PM on Thursday 27 Nov 2014 (Local Time) from KOKK Reporting Station
Overcast Overcast  
Wind Chill: 16°   Ceiling: 2000
Heat Index: 28°   Visibility: 8mi
Dew Point: 19°   Wind: 18mph
Humidity: 69%   Direction: 310°NW
Pressure: 30.31"   Gusts: NA
Location:  40.67°N, 85.83°W
Report Text: KOKK 272035Z AUTO 31016KT 8SM BKN020 OVC029 M02/M07 A3031 RMK AO1
Loading
Personal Weather Stations






























Interactive Weather Map New forecast layout! Learn more

10-Day Weather Forecast

Advertisements
Track Severe Weather on mobile